Time;durP1;ratioP1;P1;durP2;ratioP2;P2;SDS_P1;SDS_P2;PMS_P1;PMS_P2;Temp;Humidity;BMP_temperature;BMP_pressure;BME280_temperature;BME280_humidity;BME280_pressure;Samples;Min_cycle;Max_cycle;Signal;HPM_P1;HPM_P2
2023/10/02 00:01:51;;;;;;;;;;;;;;;24.64;53.55;101645.56;5070295;28;19925;-86
2023/10/02 00:04:23;;;;;;;;;;;;;;;24.66;53.14;101650.09;5087248;28;19917;-86
2023/10/02 00:06:51;;;;;;;;;;;;;;;24.65;53.23;101644.72;5066852;28;20401;-84
2023/10/02 00:09:20;;;;;;;;;;;;;;;24.61;53.02;101641.09;5067549;28;20693;-86
2023/10/02 00:11:46;;;;;;;;;;;;;;;24.63;53.29;101638.47;5086367;28;20344;-86
2023/10/02 00:14:18;;;;;;;;;;;;;;;24.63;53.47;101633.13;5071307;28;19946;-86
2023/10/02 00:16:58;;;;;;;;;;;;;;;24.56;53.49;101630.38;5069492;28;19935;-86
2023/10/02 00:19:36;;;;;;;;;;;;;;;24.43;53.17;101635.56;5072118;28;19928;-86
2023/10/02 00:22:07;;;;;;;;;;;;;;;24.45;52.68;101640.03;5085081;28;20027;-85
2023/10/02 00:24:37;;;;;;;;;;;;;;;24.48;52.72;101629.38;5071011;28;19920;-86
2023/10/02 00:27:03;;;;;;;;;;;;;;;24.55;52.73;101627.69;5069264;28;20027;-85
2023/10/02 00:29:29;;;;;;;;;;;;;;;24.55;52.70;101627.69;5049938;28;19976;-84
2023/10/02 00:31:55;;;;;;;;;;;;;;;24.44;52.95;101624.00;5070299;28;20401;-85
2023/10/02 00:34:32;;;;;;;;;;;;;;;24.44;52.89;101624.88;5070954;28;19917;-86
2023/10/02 00:37:05;;;;;;;;;;;;;;;24.32;53.02;101628.34;5068342;28;19967;-85
2023/10/02 00:39:34;;;;;;;;;;;;;;;24.26;52.69;101614.91;5069860;28;19959;-84
2023/10/02 00:42:32;;;;;;;;;;;;;;;24.32;52.66;101627.41;5071320;28;20019;-84
2023/10/02 00:44:55;;;;;;;;;;;;;;;24.47;52.66;101637.34;5064993;28;19931;-85
2023/10/02 00:47:44;;;;;;;;;;;;;;;24.40;52.35;101628.41;5070213;28;19987;-84
2023/10/02 00:50:17;;;;;;;;;;;;;;;24.45;52.78;101641.78;5069928;28;20373;-84
2023/10/02 00:53:04;;;;;;;;;;;;;;;24.36;52.64;101632.81;5069753;28;19916;-83
2023/10/02 00:55:31;;;;;;;;;;;;;;;24.43;52.69;101633.78;5065723;28;19924;-83
2023/10/02 00:57:57;;;;;;;;;;;;;;;24.45;52.76;101639.13;5086228;28;20007;-85
2023/10/02 01:00:30;;;;;;;;;;;;;;;24.31;52.88;101638.97;5070691;28;20007;-85
2023/10/02 01:02:57;;;;;;;;;;;;;;;24.33;52.24;101638.13;5089382;28;21303;-85
2023/10/02 01:05:30;;;;;;;;;;;;;;;24.38;52.46;101644.41;5073280;28;19917;-85
2023/10/02 01:07:55;;;;;;;;;;;;;;;24.33;52.35;101646.13;5073442;28;20053;-86
2023/10/02 01:10:23;;;;;;;;;;;;;;;24.43;52.07;101655.16;5091078;28;20014;-84
2023/10/02 01:12:53;;;;;;;;;;;;;;;24.41;52.17;101648.91;5087181;28;19920;-86
2023/10/02 01:15:19;;;;;;;;;;;;;;;24.41;52.52;101643.56;5091127;28;20384;-86
2023/10/02 01:17:48;;;;;;;;;;;;;;;24.44;52.74;101642.69;5087040;28;19915;-85
2023/10/02 01:23:17;;;;;;;;;;;;;;;24.39;52.46;101650.66;5089650;28;19923;-85
2023/10/02 01:25:44;;;;;;;;;;;;;;;24.44;52.48;101654.25;5090501;28;19916;-86
2023/10/02 01:28:11;;;;;;;;;;;;;;;24.42;52.93;101663.13;5077753;28;20328;-84
2023/10/02 01:30:37;;;;;;;;;;;;;;;24.22;52.42;101669.13;5088956;28;20388;-85
2023/10/02 01:33:12;;;;;;;;;;;;;;;24.23;52.48;101668.25;5085923;28;19920;-84
2023/10/02 01:35:37;;;;;;;;;;;;;;;24.20;52.55;101673.56;5089244;28;19916;-85
2023/10/02 01:38:06;;;;;;;;;;;;;;;24.31;52.39;101671.91;5089925;28;19920;-85
2023/10/02 01:40:35;;;;;;;;;;;;;;;24.40;52.13;101681.78;5073299;28;19923;-86
2023/10/02 01:43:22;;;;;;;;;;;;;;;24.38;52.58;101680.88;5082089;28;19927;-84
2023/10/02 01:45:48;;;;;;;;;;;;;;;24.41;52.38;101691.63;5077872;28;19916;-85
2023/10/02 01:48:15;;;;;;;;;;;;;;;24.39;52.32;101683.56;5071457;28;19931;-85
2023/10/02 01:50:43;;;;;;;;;;;;;;;24.39;52.69;101691.59;5090147;28;19978;-86
2023/10/02 01:53:28;;;;;;;;;;;;;;;24.39;53.28;101683.56;5085849;28;19920;-87
2023/10/02 01:56:00;;;;;;;;;;;;;;;24.41;52.97;101682.72;5075739;28;19974;-87
2023/10/02 01:58:26;;;;;;;;;;;;;;;24.42;52.42;101688.03;5075179;28;19957;-87
2023/10/02 02:00:52;;;;;;;;;;;;;;;24.42;52.76;101689.84;5087748;28;19978;-86
2023/10/02 02:03:17;;;;;;;;;;;;;;;24.37;52.85;101701.34;5089240;28;19998;-86
2023/10/02 02:05:46;;;;;;;;;;;;;;;24.33;52.81;101696.84;5072210;28;19916;-84
2023/10/02 02:08:21;;;;;;;;;;;;;;;24.37;52.58;101695.13;5071393;28;19927;-86
2023/10/02 02:10:48;;;;;;;;;;;;;;;24.33;52.83;101701.31;5070040;28;19927;-84
2023/10/02 02:13:14;;;;;;;;;;;;;;;24.33;52.93;101709.31;5070518;28;19961;-85
2023/10/02 02:15:47;;;;;;;;;;;;;;;24.31;53.29;101701.28;5067426;28;20373;-85
2023/10/02 02:18:14;;;;;;;;;;;;;;;24.33;52.91;101706.63;5088019;28;20313;-86
2023/10/02 02:20:57;;;;;;;;;;;;;;;24.34;53.38;101703.06;5091732;28;19994;-83
2023/10/02 02:23:24;;;;;;;;;;;;;;;24.34;52.98;101703.06;5077776;28;19926;-84
2023/10/02 02:25:50;;;;;;;;;;;;;;;24.35;52.99;101705.78;5091372;28;19927;-86
2023/10/02 02:28:15;;;;;;;;;;;;;;;24.32;53.41;101711.09;5073484;28;19928;-86
2023/10/02 02:30:42;;;;;;;;;;;;;;;24.32;53.10;101707.50;5093130;28;19939;-86
2023/10/02 02:33:08;;;;;;;;;;;;;;;24.29;52.93;101711.03;5074722;28;19926;-85
2023/10/02 02:35:35;;;;;;;;;;;;;;;24.31;52.88;101722.63;5093817;28;20034;-85
2023/10/02 02:38:02;;;;;;;;;;;;;;;24.32;52.83;101718.19;5095578;28;19972;-85
2023/10/02 02:40:30;;;;;;;;;;;;;;;24.30;53.04;101728.84;5076140;28;20074;-85
2023/10/02 02:42:56;;;;;;;;;;;;;;;24.30;52.21;101727.94;5075595;28;19994;-85
2023/10/02 02:45:32;;;;;;;;;;;;;;;24.28;52.64;101730.63;5073473;28;19916;-85
2023/10/02 02:48:04;;;;;;;;;;;;;;;24.29;52.47;101731.50;5075091;28;20443;-85
2023/10/02 02:50:42;;;;;;;;;;;;;;;24.31;52.16;101737.75;5075652;28;19928;-85
2023/10/02 02:53:21;;;;;;;;;;;;;;;24.28;52.54;101735.06;5075602;28;20344;-85
2023/10/02 02:56:18;;;;;;;;;;;;;;;24.26;52.35;101743.03;5092678;28;19972;-85
2023/10/02 02:58:50;;;;;;;;;;;;;;;24.27;52.17;101743.94;5082642;28;19920;-84
2023/10/02 03:01:21;;;;;;;;;;;;;;;24.24;52.83;101743.91;5089853;28;19921;-85
2023/10/02 03:03:48;;;;;;;;;;;;;;;24.20;52.55;101750.97;5075771;28;19955;-85
2023/10/02 03:06:14;;;;;;;;;;;;;;;24.25;52.18;101749.25;5056048;28;20316;-87
2023/10/02 03:08:41;;;;;;;;;;;;;;;24.24;52.63;101760.81;5086210;28;19997;-86
2023/10/02 03:11:06;;;;;;;;;;;;;;;24.27;52.97;101767.97;5071520;28;19923;-85
2023/10/02 03:13:34;;;;;;;;;;;;;;;24.18;53.08;101764.28;5075004;28;20053;-85
2023/10/02 03:16:08;;;;;;;;;;;;;;;24.22;53.13;101769.69;5074506;28;20023;-85
2023/10/02 03:18:36;;;;;;;;;;;;;;;24.19;52.79;101767.84;5078161;28;19946;-85
2023/10/02 03:23:38;;;;;;;;;;;;;;;24.23;53.05;101777.69;5084513;28;20003;-85
2023/10/02 03:26:21;;;;;;;;;;;;;;;24.20;53.20;101771.44;5074432;28;19970;-86
2023/10/02 03:28:47;;;;;;;;;;;;;;;24.17;52.80;101769.59;5070617;28;20368;-83
2023/10/02 03:31:16;;;;;;;;;;;;;;;24.17;52.77;101770.50;5090393;28;19927;-86
2023/10/02 03:33:42;;;;;;;;;;;;;;;24.19;53.23;101775.84;5067774;28;20023;-86
2023/10/02 03:36:10;;;;;;;;;;;;;;;24.20;52.50;101771.44;5069123;28;20440;-86
2023/10/02 03:38:42;;;;;;;;;;;;;;;24.23;52.51;101784.81;5068666;28;19935;-86
2023/10/02 03:41:09;;;;;;;;;;;;;;;24.20;52.75;101772.31;5073103;28;19920;-85
2023/10/02 03:43:34;;;;;;;;;;;;;;;24.16;52.95;101783.81;5091991;28;20031;-84
2023/10/02 03:46:06;;;;;;;;;;;;;;;24.14;52.89;101781.13;5086366;28;20019;-85
2023/10/02 03:48:32;;;;;;;;;;;;;;;24.18;52.64;101787.41;5071716;28;20038;-85
2023/10/02 03:50:59;;;;;;;;;;;;;;;24.20;52.74;101798.13;5088465;28;20336;-86
2023/10/02 03:53:31;;;;;;;;;;;;;;;24.17;52.41;101793.63;5070320;28;19954;-85
2023/10/02 03:58:51;;;;;;;;;;;;;;;24.12;53.03;101798.00;5084571;28;20013;-87
2023/10/02 04:01:29;;;;;;;;;;;;;;;24.18;52.62;101807.00;5056150;28;20060;-86
2023/10/02 04:04:19;;;;;;;;;;;;;;;24.18;51.94;101812.31;5069974;28;20424;-87
2023/10/02 04:06:45;;;;;;;;;;;;;;;24.06;52.02;101827.25;5076539;28;19946;-85
2023/10/02 04:11:38;;;;;;;;;;;;;;;24.13;51.57;101821.13;5066117;28;20392;-85
2023/10/02 04:14:17;;;;;;;;;;;;;;;24.11;51.78;101831.81;5071577;28;19924;-86
2023/10/02 04:17:09;;;;;;;;;;;;;;;24.12;51.60;101832.69;5070007;28;19921;-86
2023/10/02 04:19:35;;;;;;;;;;;;;;;24.12;52.09;101835.38;5066061;28;20058;-88
2023/10/02 04:22:06;;;;;;;;;;;;;;;24.07;52.47;101831.75;5056148;28;20012;-87
2023/10/02 04:24:51;;;;;;;;;;;;;;;24.13;52.20;101838.06;5056364;28;19920;-87
2023/10/02 04:32:39;;;;;;;;;;;;;;;24.11;52.22;101838.94;5067519;28;19924;-87
2023/10/02 04:35:44;;;;;;;;;;;;;;;24.10;52.43;101837.09;5082806;28;20424;-88
2023/10/02 04:38:47;;;;;;;;;;;;;;;24.06;52.68;101837.94;5067280;28;20383;-89
2023/10/02 04:41:17;;;;;;;;;;;;;;;24.09;52.08;101838.88;5065183;28;19986;-89
2023/10/02 04:43:44;;;;;;;;;;;;;;;24.09;51.78;101846.00;5052865;28;20413;-89
2023/10/02 04:46:14;;;;;;;;;;;;;;;24.09;51.63;101846.00;5072537;28;19928;-89
2023/10/02 04:48:45;;;;;;;;;;;;;;;24.09;51.78;101859.34;5055551;28;19924;-89
2023/10/02 04:51:13;;;;;;;;;;;;;;;23.97;51.44;101854.69;5045536;28;20282;-89
2023/10/02 04:53:46;;;;;;;;;;;;;;;23.82;52.18;101855.34;5052589;28;19936;-89
2023/10/02 04:58:49;;;;;;;;;;;;;;;23.72;52.10;101858.69;5067977;28;19921;-87
2023/10/02 05:01:25;;;;;;;;;;;;;;;23.72;51.93;101850.69;5047519;28;19929;-87
2023/10/02 05:03:54;;;;;;;;;;;;;;;23.66;52.43;101854.13;5045028;28;19935;-89
2023/10/02 05:14:15;;;;;;;;;;;;;;;23.71;52.00;101872.91;5045342;28;20022;-87
2023/10/02 05:16:45;;;;;;;;;;;;;;;23.60;51.63;101878.06;5028763;28;20031;-87
2023/10/02 05:19:14;;;;;;;;;;;;;;;23.56;51.28;101877.09;5047510;28;19925;-86
2023/10/02 05:21:39;;;;;;;;;;;;;;;23.46;51.72;101875.13;5030967;28;19931;-85
2023/10/02 05:24:06;;;;;;;;;;;;;;;23.48;51.41;101870.72;5045421;28;19920;-86
2023/10/02 05:26:34;;;;;;;;;;;;;;;23.52;51.50;101879.69;5029899;28;19978;-87
2023/10/02 05:29:05;;;;;;;;;;;;;;;23.66;51.49;101886.13;5036404;28;19921;-87
2023/10/02 05:31:35;;;;;;;;;;;;;;;23.67;51.42;101895.06;5025862;28;20381;-89
2023/10/02 05:34:06;;;;;;;;;;;;;;;23.76;51.26;101890.81;5030641;28;19921;-85
2023/10/02 05:36:32;;;;;;;;;;;;;;;23.78;51.14;101906.84;5031449;28;20012;-87
2023/10/02 05:41:45;;;;;;;;;;;;;;;23.86;51.22;101905.22;5046501;28;20157;-85
2023/10/02 05:44:25;;;;;;;;;;;;;;;23.83;51.33;101904.25;5051055;28;19971;-89
2023/10/02 05:47:04;;;;;;;;;;;;;;;23.74;51.81;101907.63;5039132;28;19917;-87
2023/10/02 05:49:30;;;;;;;;;;;;;;;23.66;50.99;101922.59;5060995;28;19921;-87
2023/10/02 05:52:02;;;;;;;;;;;;;;;23.77;50.79;101921.97;5065706;28;19916;-88
2023/10/02 06:00:54;;;;;;;;;;;;;;;23.89;51.26;101942.59;5013116;28;20428;-87
2023/10/02 06:03:58;;;;;;;;;;;;;;;23.94;51.51;101940.03;5024130;28;19929;-90
2023/10/02 06:36:20;;;;;;;;;;;;;;;23.80;51.59;102008.25;5054577;28;19928;-85
2023/10/02 06:46:06;;;;;;;;;;;;;;;23.63;51.79;101992.78;5037966;28;20405;-86
2023/10/02 06:48:34;;;;;;;;;;;;;;;23.72;51.92;101986.72;5033146;28;20298;-87
2023/10/02 06:51:01;;;;;;;;;;;;;;;23.80;50.98;101994.91;5047752;28;19917;-88
2023/10/02 06:53:30;;;;;;;;;;;;;;;23.75;51.60;101997.47;5036094;28;20382;-86
2023/10/02 06:56:04;;;;;;;;;;;;;;;23.80;51.16;102005.59;5057836;28;19995;-88
2023/10/02 06:58:50;;;;;;;;;;;;;;;23.60;51.61;101999.81;5038093;28;19955;-87
2023/10/02 07:01:18;;;;;;;;;;;;;;;23.74;51.42;101993.88;5074348;28;19969;-85
2023/10/02 07:03:52;;;;;;;;;;;;;;;23.61;51.84;101996.28;5046779;28;19963;-87
2023/10/02 07:06:19;;;;;;;;;;;;;;;23.51;52.41;101998.75;5055534;28;19916;-87
2023/10/02 07:09:10;;;;;;;;;;;;;;;23.70;50.72;102001.78;5076631;28;19923;-86
2023/10/02 07:11:39;;;;;;;;;;;;;;;23.62;51.60;102015.00;5054369;28;19928;-87
2023/10/02 07:14:11;;;;;;;;;;;;;;;23.64;51.38;102007.88;5088022;28;19966;-89
2023/10/02 07:16:38;;;;;;;;;;;;;;;23.70;50.80;102025.81;5093582;28;19923;-86
2023/10/02 07:19:04;;;;;;;;;;;;;;;23.70;50.75;102018.69;5058193;28;20361;-86
2023/10/02 07:21:30;;;;;;;;;;;;;;;23.67;51.31;102028.41;5075700;28;20438;-86
2023/10/02 07:24:49;;;;;;;;;;;;;;;23.74;50.85;102033.00;5060671;28;20312;-87
2023/10/02 07:27:02;;;;;;;;;;;;;;;23.71;51.25;102036.50;5086435;28;19920;-87
2023/10/02 07:29:42;;;;;;;;;;;;;;;23.67;51.61;102042.66;5074809;28;20288;-86
2023/10/02 07:32:13;;;;;;;;;;;;;;;23.71;51.32;102040.94;5076239;28;19920;-88
2023/10/02 07:34:39;;;;;;;;;;;;;;;23.64;51.79;102052.34;5059704;28;19912;-86
2023/10/02 07:37:07;;;;;;;;;;;;;;;23.68;50.67;102051.53;5059627;28;19931;-86
2023/10/02 07:39:37;;;;;;;;;;;;;;;23.57;51.73;102059.31;5068347;28;19931;-87
2023/10/02 07:42:04;;;;;;;;;;;;;;;23.65;51.01;102065.72;5074052;28;20346;-84
2023/10/02 07:44:37;;;;;;;;;;;;;;;23.68;50.87;102065.75;5075987;28;19913;-86
2023/10/02 07:47:10;;;;;;;;;;;;;;;23.73;50.66;102073.88;5073771;28;19955;-86
2023/10/02 07:49:37;;;;;;;;;;;;;;;23.73;50.80;102077.44;5074931;28;19920;-87
2023/10/02 07:52:09;;;;;;;;;;;;;;;23.75;50.80;102077.50;5075427;28;19912;-88
2023/10/02 07:54:44;;;;;;;;;;;;;;;23.76;50.95;102087.31;5095175;28;20346;-87
2023/10/02 07:57:18;;;;;;;;;;;;;;;23.75;50.63;102080.16;5060120;28;19920;-87
2023/10/02 07:59:44;;;;;;;;;;;;;;;23.70;50.79;102084.47;5090541;28;19916;-87
2023/10/02 08:02:26;;;;;;;;;;;;;;;23.68;50.74;102081.78;5061427;28;19988;-88
2023/10/02 08:04:54;;;;;;;;;;;;;;;23.74;50.55;102081.91;5037324;28;19917;-87
2023/10/02 08:07:19;;;;;;;;;;;;;;;23.60;51.51;102083.41;5053604;28;19962;-86
2023/10/02 08:09:48;;;;;;;;;;;;;;;23.61;51.48;102079.84;5052468;28;19917;-85
2023/10/02 08:12:30;;;;;;;;;;;;;;;23.70;50.90;102087.16;5051056;28;19917;-86
2023/10/02 08:15:25;;;;;;;;;;;;;;;23.74;50.97;102086.34;5043580;28;19920;-87
2023/10/02 08:20:37;;;;;;;;;;;;;;;23.66;51.05;102093.28;5052498;28;19917;-86
2023/10/02 08:23:22;;;;;;;;;;;;;;;23.70;50.81;102095.16;5053142;28;20459;-86
2023/10/02 08:26:00;;;;;;;;;;;;;;;23.69;51.03;102094.25;5037129;28;19966;-90
2023/10/02 08:28:29;;;;;;;;;;;;;;;23.68;51.08;102095.09;5023769;28;19916;-88
2023/10/02 08:31:01;;;;;;;;;;;;;;;23.67;51.21;102084.44;5033013;28;20380;-88
2023/10/02 08:40:03;;;;;;;;;;;;;;;23.70;51.34;102095.16;5032191;28;19971;-87
2023/10/02 08:42:32;;;;;;;;;;;;;;;23.65;51.19;102092.38;5051262;28;19917;-88
2023/10/02 08:45:00;;;;;;;;;;;;;;;23.68;51.25;102095.09;5045409;28;19943;-88
2023/10/02 08:47:48;;;;;;;;;;;;;;;23.69;51.38;102096.94;5051709;28;19917;-88
2023/10/02 08:53:22;;;;;;;;;;;;;;;23.66;51.19;102091.50;5049983;28;20469;-87
2023/10/02 08:56:21;;;;;;;;;;;;;;;23.68;51.13;102099.56;5050493;28;19935;-88
2023/10/02 08:59:35;;;;;;;;;;;;;;;23.64;51.38;102106.56;5036295;28;20399;-88
2023/10/02 09:02:14;;;;;;;;;;;;;;;23.65;51.75;102102.16;4974180;28;19996;-88
2023/10/02 09:05:01;;;;;;;;;;;;;;;23.66;51.56;102098.63;4970157;28;19926;-87
2023/10/02 09:07:44;;;;;;;;;;;;;;;23.59;51.57;102105.59;5028770;28;19917;-87
2023/10/02 09:10:24;;;;;;;;;;;;;;;23.56;51.23;102098.44;5018227;28;19999;-87
2023/10/02 09:13:11;;;;;;;;;;;;;;;23.61;50.95;102101.19;5037792;28;19916;-87
2023/10/02 09:15:37;;;;;;;;;;;;;;;23.64;51.38;102092.34;5050907;28;20007;-87
2023/10/02 09:18:19;;;;;;;;;;;;;;;23.63;51.14;102109.22;5023307;28;20496;-87
2023/10/02 09:20:53;;;;;;;;;;;;;;;23.64;51.23;102105.69;5021654;28;20395;-87
2023/10/02 09:23:27;;;;;;;;;;;;;;;23.63;51.51;102102.13;5019379;28;20361;-87
2023/10/02 09:26:17;;;;;;;;;;;;;;;23.60;51.46;102102.06;5027616;28;19924;-87
2023/10/02 09:28:56;;;;;;;;;;;;;;;23.48;51.72;102097.34;5034224;28;20439;-86
2023/10/02 09:31:24;;;;;;;;;;;;;;;23.54;51.70;102099.28;5018183;28;20039;-87
2023/10/02 09:33:51;;;;;;;;;;;;;;;23.53;51.86;102106.34;5025763;28;19925;-86
2023/10/02 09:36:19;;;;;;;;;;;;;;;23.50;51.71;102094.72;5031978;28;19917;-87
2023/10/02 09:38:46;;;;;;;;;;;;;;;23.57;51.53;102102.88;5064286;28;19928;-87
2023/10/02 09:41:15;;;;;;;;;;;;;;;23.54;51.31;102102.81;5045198;28;19975;-87
2023/10/02 09:43:42;;;;;;;;;;;;;;;23.59;51.53;102110.91;5054915;28;19936;-87
2023/10/02 09:46:20;;;;;;;;;;;;;;;23.56;51.25;102114.44;5037129;28;19913;-88
2023/10/02 09:49:03;;;;;;;;;;;;;;;23.57;51.47;102102.00;5019250;28;19920;-89
2023/10/02 09:51:38;;;;;;;;;;;;;;;23.57;51.26;102104.66;5033473;28;19938;-88
2023/10/02 09:54:09;;;;;;;;;;;;;;;23.57;51.67;102100.22;5025004;28;20332;-88
2023/10/02 09:57:04;;;;;;;;;;;;;;;23.58;51.51;102102.03;5056614;28;19956;-87
2023/10/02 09:59:35;;;;;;;;;;;;;;;23.57;51.88;102102.88;5053964;28;19917;-87
2023/10/02 10:02:47;;;;;;;;;;;;;;;23.57;51.64;102107.31;5028425;28;19916;-87
2023/10/02 10:05:00;;;;;;;;;;;;;;;23.54;51.54;102108.16;5068458;28;19925;-88
2023/10/02 10:08:33;;;;;;;;;;;;;;;23.54;51.68;102108.16;5071307;28;19920;-87
2023/10/02 10:10:47;;;;;;;;;;;;;;;23.55;51.52;102109.94;5061113;28;19920;-87
2023/10/02 10:13:24;;;;;;;;;;;;;;;23.55;51.93;102101.06;5060105;28;20027;-88
2023/10/02 10:15:51;;;;;;;;;;;;;;;23.52;51.88;102090.34;5071382;28;19967;-87
2023/10/02 10:18:17;;;;;;;;;;;;;;;23.56;51.79;102092.19;5073271;28;19912;-88
2023/10/02 10:20:44;;;;;;;;;;;;;;;23.48;51.68;102089.34;5054402;28;20011;-86
2023/10/02 10:23:31;;;;;;;;;;;;;;;23.49;51.80;102090.25;5055153;28;19946;-86
2023/10/02 10:26:07;;;;;;;;;;;;;;;23.52;52.04;102085.00;5056319;28;19920;-88
2023/10/02 10:28:33;;;;;;;;;;;;;;;23.48;51.72;102081.34;5056112;28;19931;-88
2023/10/02 10:31:02;;;;;;;;;;;;;;;23.46;51.71;102080.44;5038854;28;19994;-88
2023/10/02 10:33:33;;;;;;;;;;;;;;;23.39;52.77;102081.16;5054803;28;19916;-89
2023/10/02 10:36:02;;;;;;;;;;;;;;;23.47;51.92;102076.88;5071991;28;20407;-88
2023/10/02 10:38:57;;;;;;;;;;;;;;;23.47;52.05;102066.22;5055342;28;19920;-86
2023/10/02 10:44:52;;;;;;;;;;;;;;;23.45;52.34;102075.97;5064907;28;19923;-87
2023/10/02 10:47:43;;;;;;;;;;;;;;;23.49;52.09;102076.91;5077225;28;20046;-88
2023/10/02 10:51:20;;;;;;;;;;;;;;;23.49;52.22;102074.25;5068281;28;19923;-87
2023/10/02 11:00:24;;;;;;;;;;;;;;;23.47;52.09;102073.31;5058405;28;20384;-88
2023/10/02 11:03:07;;;;;;;;;;;;;;;23.45;52.18;102069.72;5057623;28;21197;-87
2023/10/02 11:09:11;;;;;;;;;;;;;;;23.45;52.42;102067.06;5053542;28;19924;-89
2023/10/02 11:11:49;;;;;;;;;;;;;;;23.44;52.64;102063.50;4999970;28;20305;-88
2023/10/02 11:14:21;;;;;;;;;;;;;;;23.45;52.79;102053.72;5046628;28;19963;-89
2023/10/02 11:16:54;;;;;;;;;;;;;;;23.37;49.96;102050.91;5071993;28;19913;-84
2023/10/02 11:19:34;;;;;;;;;;;;;;;23.19;44.82;102048.72;5070086;28;19924;-83
2023/10/02 11:22:03;;;;;;;;;;;;;;;23.20;47.49;102044.28;5056534;28;19963;-85
2023/10/02 11:24:29;;;;;;;;;;;;;;;23.29;47.79;102044.50;5049652;28;19923;-86
2023/10/02 11:27:07;;;;;;;;;;;;;;;23.28;48.69;102040.94;5062841;28;19916;-85
2023/10/02 11:29:40;;;;;;;;;;;;;;;23.27;49.10;102041.78;5059644;28;20336;-87
2023/10/02 11:32:27;;;;;;;;;;;;;;;23.23;49.67;102036.38;5054471;28;19917;-86
2023/10/02 11:35:03;;;;;;;;;;;;;;;23.28;49.40;102040.94;5070420;28;19917;-87
2023/10/02 11:37:28;;;;;;;;;;;;;;;23.33;49.67;102033.94;5071327;28;19924;-85
2023/10/02 11:39:55;;;;;;;;;;;;;;;23.36;49.60;102038.44;5053912;28;19916;-86
2023/10/02 11:42:21;;;;;;;;;;;;;;;23.35;49.73;102040.19;5071109;28;19916;-86
2023/10/02 11:44:46;;;;;;;;;;;;;;;23.24;50.20;102032.81;5071211;28;19966;-86
2023/10/02 11:47:12;;;;;;;;;;;;;;;23.32;49.88;102031.22;5072298;28;20427;-86
2023/10/02 11:49:38;;;;;;;;;;;;;;;23.36;50.29;102030.44;5072248;28;19912;-87
2023/10/02 11:52:05;;;;;;;;;;;;;;;23.33;50.43;102033.94;5062406;28;19913;-87
2023/10/02 11:54:39;;;;;;;;;;;;;;;23.31;50.49;102034.78;5053400;28;19920;-87
2023/10/02 11:57:08;;;;;;;;;;;;;;;23.32;50.34;102025.91;5055124;28;20288;-87
2023/10/02 11:59:36;;;;;;;;;;;;;;;23.29;50.88;102025.84;5070786;28;19955;-86
2023/10/02 12:02:03;;;;;;;;;;;;;;;23.31;50.43;102024.13;5072621;28;19913;-87
2023/10/02 12:04:30;;;;;;;;;;;;;;;23.33;50.75;102023.28;5051759;28;19924;-87
2023/10/02 12:06:56;;;;;;;;;;;;;;;23.30;50.56;102022.31;5041349;28;19920;-87
2023/10/02 12:09:23;;;;;;;;;;;;;;;23.28;51.13;102018.69;5064974;28;19920;-86
2023/10/02 12:11:48;;;;;;;;;;;;;;;23.28;50.68;102024.97;5055093;28;20320;-87
2023/10/02 12:14:14;;;;;;;;;;;;;;;23.30;50.82;102017.84;5054986;28;19920;-86
2023/10/02 12:16:40;;;;;;;;;;;;;;;23.24;51.25;102014.16;5057731;28;19916;-87
2023/10/02 12:19:08;;;;;;;;;;;;;;;23.27;50.84;102012.47;5081634;28;19923;-86
2023/10/02 12:21:34;;;;;;;;;;;;;;;23.29;50.81;102009.84;5063221;28;19984;-85
2023/10/02 12:24:00;;;;;;;;;;;;;;;23.19;51.40;102005.19;5043517;28;20362;-86
2023/10/02 12:26:27;;;;;;;;;;;;;;;23.12;51.47;102002.38;5059102;28;19923;-85
2023/10/02 12:28:52;;;;;;;;;;;;;;;23.17;51.59;101998.03;5057676;28;20012;-85
2023/10/02 12:31:19;;;;;;;;;;;;;;;23.21;51.55;102003.44;5055633;28;19955;-86
2023/10/02 12:33:45;;;;;;;;;;;;;;;23.26;51.48;102001.78;5072744;28;19943;-86
2023/10/02 12:36:11;;;;;;;;;;;;;;;23.27;51.77;101995.59;5056540;28;20288;-86
2023/10/02 12:38:38;;;;;;;;;;;;;;;23.24;51.09;101998.19;5033619;28;19912;-86
2023/10/02 12:41:24;;;;;;;;;;;;;;;23.20;51.22;101989.25;5067222;28;20381;-86
2023/10/02 12:43:56;;;;;;;;;;;;;;;23.19;50.76;101997.19;5057001;28;19951;-86
2023/10/02 12:46:25;;;;;;;;;;;;;;;23.17;51.58;102002.47;5060194;28;20569;-87
2023/10/02 12:48:51;;;;;;;;;;;;;;;23.19;51.36;101994.53;5059519;28;20289;-87
2023/10/02 12:51:17;;;;;;;;;;;;;;;23.19;51.71;101990.09;5059806;28;19962;-86
2023/10/02 12:53:42;;;;;;;;;;;;;;;23.25;51.42;101995.56;5059338;28;19924;-87
2023/10/02 12:56:09;;;;;;;;;;;;;;;23.26;51.49;101993.78;5076071;28;20381;-87
2023/10/02 12:58:35;;;;;;;;;;;;;;;23.28;51.31;101992.03;5054807;28;19944;-87
2023/10/02 13:01:02;;;;;;;;;;;;;;;23.23;50.73;101993.72;5044613;28;19916;-86
2023/10/02 13:03:29;;;;;;;;;;;;;;;23.10;49.86;101997.91;5074809;28;19927;-87
2023/10/02 13:05:57;;;;;;;;;;;;;;;23.08;50.58;101996.97;5073528;28;19924;-86
2023/10/02 13:08:24;;;;;;;;;;;;;;;23.07;50.83;101997.81;5073268;28;19919;-87
2023/10/02 13:10:49;;;;;;;;;;;;;;;23.14;51.25;101997.09;5073406;28;20380;-86
2023/10/02 13:13:16;;;;;;;;;;;;;;;23.19;51.34;101995.41;5073306;28;19916;-88
2023/10/02 13:15:43;;;;;;;;;;;;;;;23.30;50.57;101995.66;5055830;28;19915;-87
2023/10/02 13:18:08;;;;;;;;;;;;;;;23.26;51.37;101992.03;5048022;28;19965;-87
2023/10/02 13:20:34;;;;;;;;;;;;;;;23.29;51.13;101989.41;5068683;28;20006;-86
2023/10/02 13:23:06;;;;;;;;;;;;;;;23.28;51.25;101984.97;5073063;28;19920;-87
2023/10/02 13:25:55;;;;;;;;;;;;;;;23.31;50.34;101989.47;5072143;28;19912;-85
2023/10/02 13:28:31;;;;;;;;;;;;;;;23.29;50.77;101983.19;5089771;28;19912;-86
2023/10/02 13:30:56;;;;;;;;;;;;;;;23.29;50.73;101992.09;5092064;28;19920;-87
2023/10/02 13:34:09;;;;;;;;;;;;;;;23.25;50.64;101992.88;5065939;28;20007;-87
2023/10/02 13:36:44;;;;;;;;;;;;;;;23.36;50.40;101985.13;5052862;28;19923;-86
2023/10/02 13:39:41;;;;;;;;;;;;;;;23.38;50.61;101978.03;5078088;28;19922;-86
2023/10/02 13:42:09;;;;;;;;;;;;;;;23.37;50.75;101970.94;5072188;28;19916;-86
2023/10/02 13:45:00;;;;;;;;;;;;;;;23.41;50.61;101966.53;5040545;28;19916;-86
2023/10/02 13:47:47;;;;;;;;;;;;;;;23.21;51.17;101972.38;5081840;28;19912;-86
2023/10/02 13:50:13;;;;;;;;;;;;;;;23.25;51.19;101968.00;5090345;28;19912;-87
2023/10/02 13:52:40;;;;;;;;;;;;;;;23.30;51.17;101969.88;5090882;28;20333;-85
2023/10/02 13:55:19;;;;;;;;;;;;;;;23.31;51.20;101973.47;5055374;28;19917;-84
2023/10/02 13:57:51;;;;;;;;;;;;;;;23.37;51.07;101978.94;5072933;28;19912;-84
2023/10/02 14:00:17;;;;;;;;;;;;;;;23.31;51.10;101978.81;5072913;28;20379;-85
2023/10/02 14:03:00;;;;;;;;;;;;;;;23.23;51.17;101977.75;5089684;28;19916;-85
2023/10/02 14:05:29;;;;;;;;;;;;;;;23.15;51.07;101988.22;5056029;28;19981;-84
2023/10/02 14:07:54;;;;;;;;;;;;;;;23.18;50.91;101988.31;5055561;28;19916;-84
2023/10/02 14:10:21;;;;;;;;;;;;;;;23.13;50.83;101993.50;5055280;28;19969;-85
2023/10/02 14:12:47;;;;;;;;;;;;;;;23.17;51.28;101986.50;5072186;28;19912;-84
2023/10/02 14:15:13;;;;;;;;;;;;;;;23.28;50.94;101981.38;5059173;28;20373;-84
2023/10/02 14:17:40;;;;;;;;;;;;;;;23.23;50.91;101983.97;5059314;28;20043;-86
2023/10/02 14:20:08;;;;;;;;;;;;;;;23.20;51.33;101988.31;5076048;28;19970;-85
2023/10/02 14:22:36;;;;;;;;;;;;;;;23.28;50.88;101992.97;5075804;28;19918;-86
2023/10/02 14:25:06;;;;;;;;;;;;;;;23.26;51.14;101984.03;5080869;28;20385;-86
2023/10/02 14:27:32;;;;;;;;;;;;;;;23.30;50.90;101993.88;5074562;28;19916;-84
2023/10/02 14:29:57;;;;;;;;;;;;;;;23.23;51.53;101991.06;5094029;28;19984;-84
2023/10/02 14:32:26;;;;;;;;;;;;;;;23.20;51.44;101980.31;5075607;28;19912;-85
2023/10/02 14:34:54;;;;;;;;;;;;;;;23.21;50.65;101983.03;5093592;28;20372;-86
2023/10/02 14:37:21;;;;;;;;;;;;;;;23.14;50.70;101990.00;5093309;28;20057;-85
2023/10/02 14:39:48;;;;;;;;;;;;;;;22.98;50.77;101983.38;5093429;28;19923;-85
2023/10/02 14:42:14;;;;;;;;;;;;;;;23.08;51.71;101995.19;5075516;28;19912;-85